Aeroporto :
LOGIN :

Iscrizione | Disclaimer

   EN    FR    IT 

 










Sommario :    VFR   VFR Marginale   IFR   IFR Intensivo   IFR Molto Intensivo
Visibilità : 
Base nubi : 
>= 8 km
>= 3000ft
5 / 8 km
1000 / 3000 ft
1500m / 5 km
500 / 1000 ft
800 / 1500m
200 / 500 ft
< 800m
< 200 ft
Simboli :   Temporali  Nebbia  Neve Forte  Precipitazioni Forti  Vento > 20 kt
SIGMETs :   Varie  Temporali  Ghiacco  Turbolenza  Onda orograficha  Ceneri Vulcaniche






- Altitudine del aeroporto : 580 ft


LFOA - Avord

ULTIMO METAR :
  • 210900Z AUTO 27010KT 9999 BKN012/// BKN019/// BKN030/// ///CB 21/19 Q1011

METARs OBSOLETI :
  • 210830Z AUTO 27011KT 9999 BKN011/// BKN018/// BKN027/// ///TCU 21/19 Q1010
  • 210800Z AUTO 27009KT 9999 BKN008 BKN013 OVC044 21/19 Q1010
  • 210730Z AUTO 27007KT 9999 BKN007/// BKN012/// OVC020/// ///TCU 20/19 Q1010
  • 210700Z AUTO 27008KT 9999 BKN005 BKN017 BKN022 20/19 Q1009
  • 210630Z AUTO 25005KT 9999 BKN005/// OVC009/// ///CB 19/19 Q1009
  • 210600Z AUTO 31003KT 4600 -RA BR BKN006 OVC011 19/18 Q1009
  • 210530Z AUTO 00000KT 9999 BKN006 OVC011 19/18 Q1009
  • 210500Z AUTO 01003KT 330V060 6000 OVC004 19/18 Q1008
  • 210430Z AUTO 09003KT 9999 OVC006 19/18 Q1008
  • 210400Z AUTO 06005KT 9999 OVC004 19/18 Q1008

Previsioni scadute.



MetMap, La meteo Aeronautica in un colpo d'occhio ! - Copyright ORBIFLY Dicembre 2007 - Disclaimer

ORBIFLY MET'MAP TEAM :

Programmazione e sviluppo : Alexandra Zaïnal
Concezione : Baudouin d'Aumeries
Supporto tecnico e logistico : Manuel Goepfert
Aiuto : Marc-Olivier Méhu
Aiuto per la traduzione : Arnaldo La Scala




FONTI E CREDITI :

   NOAA